sensor_id;sensor_type;location;lat;lon;timestamp;temperature;humidity
1347;DHT22;667;48.796;9.480;2023-07-20T00:01:47;23.40;51.90
1347;DHT22;667;48.796;9.480;2023-07-20T00:04:13;23.40;51.70
1347;DHT22;667;48.796;9.480;2023-07-20T00:06:39;23.40;51.80
1347;DHT22;667;48.796;9.480;2023-07-20T00:09:08;23.40;51.80
1347;DHT22;667;48.796;9.480;2023-07-20T00:11:36;23.30;51.40
1347;DHT22;667;48.796;9.480;2023-07-20T00:14:02;23.20;51.10
1347;DHT22;667;48.796;9.480;2023-07-20T00:16:28;23.20;50.60
1347;DHT22;667;48.796;9.480;2023-07-20T00:18:54;23.10;50.40
1347;DHT22;667;48.796;9.480;2023-07-20T00:21:19;23.10;50.10
1347;DHT22;667;48.796;9.480;2023-07-20T00:23:45;23.10;49.80
1347;DHT22;667;48.796;9.480;2023-07-20T00:26:11;23.10;50.00
1347;DHT22;667;48.796;9.480;2023-07-20T00:28:36;23.10;50.40
1347;DHT22;667;48.796;9.480;2023-07-20T00:31:02;23.10;50.50
1347;DHT22;667;48.796;9.480;2023-07-20T00:33:28;23.10;50.40
1347;DHT22;667;48.796;9.480;2023-07-20T00:35:54;23.10;50.60
1347;DHT22;667;48.796;9.480;2023-07-20T00:38:19;23.10;51.00
1347;DHT22;667;48.796;9.480;2023-07-20T00:40:46;23.10;51.10
1347;DHT22;667;48.796;9.480;2023-07-20T00:43:11;23.10;51.20
1347;DHT22;667;48.796;9.480;2023-07-20T00:45:38;23.00;51.30
1347;DHT22;667;48.796;9.480;2023-07-20T00:48:05;23.00;51.70
1347;DHT22;667;48.796;9.480;2023-07-20T00:50:32;23.00;51.80
1347;DHT22;667;48.796;9.480;2023-07-20T00:52:59;23.00;51.70
1347;DHT22;667;48.796;9.480;2023-07-20T00:55:25;23.00;52.00
1347;DHT22;667;48.796;9.480;2023-07-20T00:57:52;22.90;52.20
1347;DHT22;667;48.796;9.480;2023-07-20T01:00:18;22.90;52.30
1347;DHT22;667;48.796;9.480;2023-07-20T01:02:45;22.80;52.50
1347;DHT22;667;48.796;9.480;2023-07-20T01:05:11;22.80;52.60
1347;DHT22;667;48.796;9.480;2023-07-20T01:08:00;22.70;52.40
1347;DHT22;667;48.796;9.480;2023-07-20T01:10:54;22.70;52.40
1347;DHT22;667;48.796;9.480;2023-07-20T01:13:22;22.60;52.70
1347;DHT22;667;48.796;9.480;2023-07-20T01:15:56;22.60;52.40
1347;DHT22;667;48.796;9.480;2023-07-20T01:18:23;22.50;52.50
1347;DHT22;667;48.796;9.480;2023-07-20T01:20:49;22.40;52.70
1347;DHT22;667;48.796;9.480;2023-07-20T01:23:43;22.40;53.10
1347;DHT22;667;48.796;9.480;2023-07-20T01:31:45;22.30;53.90
1347;DHT22;667;48.796;9.480;2023-07-20T01:34:12;22.20;53.60
1347;DHT22;667;48.796;9.480;2023-07-20T01:36:43;22.20;53.90
1347;DHT22;667;48.796;9.480;2023-07-20T01:39:10;22.20;54.00
1347;DHT22;667;48.796;9.480;2023-07-20T01:41:36;22.10;54.20
1347;DHT22;667;48.796;9.480;2023-07-20T01:44:03;22.10;54.40
1347;DHT22;667;48.796;9.480;2023-07-20T01:46:29;22.00;54.60
1347;DHT22;667;48.796;9.480;2023-07-20T01:48:55;22.00;55.10
1347;DHT22;667;48.796;9.480;2023-07-20T01:51:20;22.00;55.50
1347;DHT22;667;48.796;9.480;2023-07-20T01:53:46;21.90;55.60
1347;DHT22;667;48.796;9.480;2023-07-20T01:56:11;21.80;55.60
1347;DHT22;667;48.796;9.480;2023-07-20T01:58:38;21.80;55.80
1347;DHT22;667;48.796;9.480;2023-07-20T02:01:03;21.70;55.70
1347;DHT22;667;48.796;9.480;2023-07-20T02:03:29;21.70;55.90
1347;DHT22;667;48.796;9.480;2023-07-20T02:05:55;21.60;56.00
1347;DHT22;667;48.796;9.480;2023-07-20T02:08:22;21.60;55.90
1347;DHT22;667;48.796;9.480;2023-07-20T02:10:48;21.50;56.00
1347;DHT22;667;48.796;9.480;2023-07-20T02:13:14;21.50;56.10
1347;DHT22;667;48.796;9.480;2023-07-20T02:15:40;21.40;56.20
1347;DHT22;667;48.796;9.480;2023-07-20T02:18:06;21.30;56.50
1347;DHT22;667;48.796;9.480;2023-07-20T02:20:32;21.30;56.90
1347;DHT22;667;48.796;9.480;2023-07-20T02:22:57;21.20;57.00
1347;DHT22;667;48.796;9.480;2023-07-20T02:25:23;21.20;57.30
1347;DHT22;667;48.796;9.480;2023-07-20T02:27:48;21.10;57.50
1347;DHT22;667;48.796;9.480;2023-07-20T02:30:14;21.00;57.50
1347;DHT22;667;48.796;9.480;2023-07-20T02:32:41;21.00;57.80
1347;DHT22;667;48.796;9.480;2023-07-20T02:35:11;20.90;57.80
1347;DHT22;667;48.796;9.480;2023-07-20T02:37:36;20.80;57.80
1347;DHT22;667;48.796;9.480;2023-07-20T02:40:02;20.80;58.20
1347;DHT22;667;48.796;9.480;2023-07-20T02:42:29;20.80;58.30
1347;DHT22;667;48.796;9.480;2023-07-20T02:44:55;20.70;58.40
1347;DHT22;667;48.796;9.480;2023-07-20T02:47:20;20.70;58.50
1347;DHT22;667;48.796;9.480;2023-07-20T02:49:46;20.70;58.60
1347;DHT22;667;48.796;9.480;2023-07-20T02:52:11;20.70;58.60
1347;DHT22;667;48.796;9.480;2023-07-20T02:54:37;20.70;58.70
1347;DHT22;667;48.796;9.480;2023-07-20T02:57:03;20.60;58.60
1347;DHT22;667;48.796;9.480;2023-07-20T02:59:29;20.60;58.80
1347;DHT22;667;48.796;9.480;2023-07-20T03:01:55;20.60;59.00
1347;DHT22;667;48.796;9.480;2023-07-20T03:04:21;20.50;59.10
1347;DHT22;667;48.796;9.480;2023-07-20T03:06:47;20.50;59.30
1347;DHT22;667;48.796;9.480;2023-07-20T03:09:12;20.50;59.30
1347;DHT22;667;48.796;9.480;2023-07-20T03:11:38;20.40;59.20
1347;DHT22;667;48.796;9.480;2023-07-20T03:14:03;20.40;59.30
1347;DHT22;667;48.796;9.480;2023-07-20T03:16:29;20.30;59.10
1347;DHT22;667;48.796;9.480;2023-07-20T03:18:58;20.30;59.20
1347;DHT22;667;48.796;9.480;2023-07-20T03:21:25;20.30;59.30
1347;DHT22;667;48.796;9.480;2023-07-20T03:23:50;20.20;59.50
1347;DHT22;667;48.796;9.480;2023-07-20T03:26:16;20.20;59.60
1347;DHT22;667;48.796;9.480;2023-07-20T03:28:41;20.10;59.60
1347;DHT22;667;48.796;9.480;2023-07-20T03:31:07;20.10;59.60
1347;DHT22;667;48.796;9.480;2023-07-20T03:33:33;20.10;59.80
1347;DHT22;667;48.796;9.480;2023-07-20T03:35:59;20.10;59.80
1347;DHT22;667;48.796;9.480;2023-07-20T03:38:25;20.10;60.00
1347;DHT22;667;48.796;9.480;2023-07-20T03:40:59;20.00;60.30
1347;DHT22;667;48.796;9.480;2023-07-20T03:43:26;20.00;60.50
1347;DHT22;667;48.796;9.480;2023-07-20T03:45:53;20.00;60.60
1347;DHT22;667;48.796;9.480;2023-07-20T03:48:23;19.90;60.40
1347;DHT22;667;48.796;9.480;2023-07-20T03:50:50;19.90;60.40
1347;DHT22;667;48.796;9.480;2023-07-20T03:53:16;19.90;60.40
1347;DHT22;667;48.796;9.480;2023-07-20T03:55:48;19.90;60.70
1347;DHT22;667;48.796;9.480;2023-07-20T03:58:14;19.80;60.80
1347;DHT22;667;48.796;9.480;2023-07-20T04:00:42;19.80;61.10
1347;DHT22;667;48.796;9.480;2023-07-20T04:03:08;19.80;61.00
1347;DHT22;667;48.796;9.480;2023-07-20T04:05:34;19.70;60.90
1347;DHT22;667;48.796;9.480;2023-07-20T04:07:59;19.70;61.10
1347;DHT22;667;48.796;9.480;2023-07-20T04:10:25;19.70;61.00
1347;DHT22;667;48.796;9.480;2023-07-20T04:12:50;19.70;61.10
1347;DHT22;667;48.796;9.480;2023-07-20T04:15:16;19.70;61.40
1347;DHT22;667;48.796;9.480;2023-07-20T04:17:41;19.70;61.50
1347;DHT22;667;48.796;9.480;2023-07-20T04:20:08;19.70;61.40
1347;DHT22;667;48.796;9.480;2023-07-20T04:22:34;19.70;61.30
1347;DHT22;667;48.796;9.480;2023-07-20T04:24:59;19.70;61.30
1347;DHT22;667;48.796;9.480;2023-07-20T04:27:25;19.70;61.30
1347;DHT22;667;48.796;9.480;2023-07-20T04:29:51;19.70;61.50
1347;DHT22;667;48.796;9.480;2023-07-20T04:32:17;19.80;61.70
1347;DHT22;667;48.796;9.480;2023-07-20T04:34:42;19.70;61.70
1347;DHT22;667;48.796;9.480;2023-07-20T04:37:08;19.70;62.00
1347;DHT22;667;48.796;9.480;2023-07-20T04:39:34;19.70;62.90
1347;DHT22;667;48.796;9.480;2023-07-20T04:42:00;19.70;62.30
1347;DHT22;667;48.796;9.480;2023-07-20T04:44:25;19.70;62.60
1347;DHT22;667;48.796;9.480;2023-07-20T04:46:51;19.70;62.60
1347;DHT22;667;48.796;9.480;2023-07-20T04:49:16;19.80;62.90
1347;DHT22;667;48.796;9.480;2023-07-20T04:51:42;19.80;62.80
1347;DHT22;667;48.796;9.480;2023-07-20T04:54:07;19.80;62.50
1347;DHT22;667;48.796;9.480;2023-07-20T04:56:33;19.80;62.30
1347;DHT22;667;48.796;9.480;2023-07-20T04:58:59;19.80;62.50
1347;DHT22;667;48.796;9.480;2023-07-20T05:01:24;19.80;62.60
1347;DHT22;667;48.796;9.480;2023-07-20T05:03:52;19.90;62.70
1347;DHT22;667;48.796;9.480;2023-07-20T05:06:17;19.90;62.90
1347;DHT22;667;48.796;9.480;2023-07-20T05:08:43;20.00;62.80
1347;DHT22;667;48.796;9.480;2023-07-20T05:11:09;19.90;61.80
1347;DHT22;667;48.796;9.480;2023-07-20T05:13:34;20.00;61.60
1347;DHT22;667;48.796;9.480;2023-07-20T05:16:00;20.00;61.60
1347;DHT22;667;48.796;9.480;2023-07-20T05:18:25;20.10;61.40
1347;DHT22;667;48.796;9.480;2023-07-20T05:20:51;20.10;61.40
1347;DHT22;667;48.796;9.480;2023-07-20T05:23:20;20.10;61.10
1347;DHT22;667;48.796;9.480;2023-07-20T05:25:46;20.20;60.80
1347;DHT22;667;48.796;9.480;2023-07-20T05:28:12;20.20;61.00
1347;DHT22;667;48.796;9.480;2023-07-20T05:30:37;20.30;61.20
1347;DHT22;667;48.796;9.480;2023-07-20T05:33:03;20.30;61.10
1347;DHT22;667;48.796;9.480;2023-07-20T05:35:29;20.40;61.50
1347;DHT22;667;48.796;9.480;2023-07-20T05:37:54;20.40;61.40
1347;DHT22;667;48.796;9.480;2023-07-20T05:40:20;20.50;60.70
1347;DHT22;667;48.796;9.480;2023-07-20T05:42:48;20.60;60.10
1347;DHT22;667;48.796;9.480;2023-07-20T05:45:17;20.60;60.20
1347;DHT22;667;48.796;9.480;2023-07-20T05:47:43;20.70;60.80
1347;DHT22;667;48.796;9.480;2023-07-20T05:50:09;20.80;60.00
1347;DHT22;667;48.796;9.480;2023-07-20T05:52:35;20.80;59.50
1347;DHT22;667;48.796;9.480;2023-07-20T05:55:00;20.90;59.50
1347;DHT22;667;48.796;9.480;2023-07-20T05:57:26;21.00;59.00
1347;DHT22;667;48.796;9.480;2023-07-20T05:59:51;21.10;58.70
1347;DHT22;667;48.796;9.480;2023-07-20T06:02:17;21.20;58.90
1347;DHT22;667;48.796;9.480;2023-07-20T06:04:42;21.30;58.60
1347;DHT22;667;48.796;9.480;2023-07-20T06:07:08;21.30;58.30
1347;DHT22;667;48.796;9.480;2023-07-20T06:09:34;21.40;58.30
1347;DHT22;667;48.796;9.480;2023-07-20T06:12:00;21.50;58.00
1347;DHT22;667;48.796;9.480;2023-07-20T06:14:25;21.60;57.90
1347;DHT22;667;48.796;9.480;2023-07-20T06:16:51;21.70;58.40
1347;DHT22;667;48.796;9.480;2023-07-20T06:19:16;21.80;57.60
1347;DHT22;667;48.796;9.480;2023-07-20T06:21:43;21.80;57.30
1347;DHT22;667;48.796;9.480;2023-07-20T06:24:09;21.80;57.20
1347;DHT22;667;48.796;9.480;2023-07-20T06:26:34;21.90;57.30
1347;DHT22;667;48.796;9.480;2023-07-20T06:29:06;22.00;57.30
1347;DHT22;667;48.796;9.480;2023-07-20T06:31:32;21.90;57.00
1347;DHT22;667;48.796;9.480;2023-07-20T06:33:58;22.00;56.80
1347;DHT22;667;48.796;9.480;2023-07-20T06:36:24;22.00;56.70
1347;DHT22;667;48.796;9.480;2023-07-20T06:38:51;22.00;56.20
1347;DHT22;667;48.796;9.480;2023-07-20T06:41:17;22.00;56.00
1347;DHT22;667;48.796;9.480;2023-07-20T06:43:42;22.10;56.10
1347;DHT22;667;48.796;9.480;2023-07-20T06:46:08;22.10;56.00
1347;DHT22;667;48.796;9.480;2023-07-20T06:48:33;22.10;55.70
1347;DHT22;667;48.796;9.480;2023-07-20T06:50:59;22.10;55.80
1347;DHT22;667;48.796;9.480;2023-07-20T06:53:25;22.20;56.30
1347;DHT22;667;48.796;9.480;2023-07-20T06:55:50;22.20;55.80
1347;DHT22;667;48.796;9.480;2023-07-20T06:58:16;22.20;55.40
1347;DHT22;667;48.796;9.480;2023-07-20T07:00:42;22.30;55.60
1347;DHT22;667;48.796;9.480;2023-07-20T07:03:08;22.30;55.50
1347;DHT22;667;48.796;9.480;2023-07-20T07:05:36;22.40;55.70
1347;DHT22;667;48.796;9.480;2023-07-20T07:08:03;22.40;55.50
1347;DHT22;667;48.796;9.480;2023-07-20T07:10:29;22.50;55.30
1347;DHT22;667;48.796;9.480;2023-07-20T07:12:54;22.50;55.20
1347;DHT22;667;48.796;9.480;2023-07-20T07:15:20;22.60;55.10
1347;DHT22;667;48.796;9.480;2023-07-20T07:17:45;22.60;54.70
1347;DHT22;667;48.796;9.480;2023-07-20T07:20:11;22.60;55.00
1347;DHT22;667;48.796;9.480;2023-07-20T07:22:37;22.60;54.80
1347;DHT22;667;48.796;9.480;2023-07-20T07:25:03;22.70;54.60
1347;DHT22;667;48.796;9.480;2023-07-20T07:27:29;22.70;54.40
1347;DHT22;667;48.796;9.480;2023-07-20T07:29:54;22.70;54.70
1347;DHT22;667;48.796;9.480;2023-07-20T07:32:20;22.80;55.00
1347;DHT22;667;48.796;9.480;2023-07-20T07:34:46;22.80;54.10
1347;DHT22;667;48.796;9.480;2023-07-20T07:37:13;22.80;54.40
1347;DHT22;667;48.796;9.480;2023-07-20T07:39:39;22.80;54.50
1347;DHT22;667;48.796;9.480;2023-07-20T07:42:05;22.80;54.70
1347;DHT22;667;48.796;9.480;2023-07-20T07:44:31;22.80;54.90
1347;DHT22;667;48.796;9.480;2023-07-20T07:46:57;22.90;54.90
1347;DHT22;667;48.796;9.480;2023-07-20T07:49:23;22.90;54.80
1347;DHT22;667;48.796;9.480;2023-07-20T07:51:48;23.00;55.00
1347;DHT22;667;48.796;9.480;2023-07-20T07:54:14;23.10;54.90
1347;DHT22;667;48.796;9.480;2023-07-20T07:56:40;23.10;54.60
1347;DHT22;667;48.796;9.480;2023-07-20T07:59:06;23.20;54.40
1347;DHT22;667;48.796;9.480;2023-07-20T08:01:32;23.30;54.40
1347;DHT22;667;48.796;9.480;2023-07-20T08:03:58;23.40;54.40
1347;DHT22;667;48.796;9.480;2023-07-20T08:06:23;23.40;54.20
1347;DHT22;667;48.796;9.480;2023-07-20T08:08:49;23.40;54.10
1347;DHT22;667;48.796;9.480;2023-07-20T08:11:15;23.50;54.90
1347;DHT22;667;48.796;9.480;2023-07-20T08:13:41;23.50;53.60
1347;DHT22;667;48.796;9.480;2023-07-20T08:16:07;23.50;53.50
1347;DHT22;667;48.796;9.480;2023-07-20T08:18:32;23.50;53.70
1347;DHT22;667;48.796;9.480;2023-07-20T08:20:58;23.50;53.70
1347;DHT22;667;48.796;9.480;2023-07-20T08:23:23;23.40;53.70
1347;DHT22;667;48.796;9.480;2023-07-20T08:25:49;23.40;53.60
1347;DHT22;667;48.796;9.480;2023-07-20T08:28:15;23.50;53.40
1347;DHT22;667;48.796;9.480;2023-07-20T08:30:46;23.50;53.00
1347;DHT22;667;48.796;9.480;2023-07-20T08:33:14;23.50;53.40
1347;DHT22;667;48.796;9.480;2023-07-20T08:35:39;23.60;53.70
1347;DHT22;667;48.796;9.480;2023-07-20T08:38:05;23.60;53.90
1347;DHT22;667;48.796;9.480;2023-07-20T08:40:33;23.60;53.20
1347;DHT22;667;48.796;9.480;2023-07-20T08:42:59;23.60;53.30
1347;DHT22;667;48.796;9.480;2023-07-20T08:45:28;23.70;53.60
1347;DHT22;667;48.796;9.480;2023-07-20T08:47:58;23.70;53.50
1347;DHT22;667;48.796;9.480;2023-07-20T08:50:25;23.70;53.70
1347;DHT22;667;48.796;9.480;2023-07-20T08:52:52;23.80;53.80
1347;DHT22;667;48.796;9.480;2023-07-20T08:55:22;23.80;53.60
1347;DHT22;667;48.796;9.480;2023-07-20T08:57:50;23.90;53.40
1347;DHT22;667;48.796;9.480;2023-07-20T09:00:19;24.00;53.20
1347;DHT22;667;48.796;9.480;2023-07-20T09:02:46;24.10;53.10
1347;DHT22;667;48.796;9.480;2023-07-20T09:05:12;24.20;52.80
1347;DHT22;667;48.796;9.480;2023-07-20T09:07:40;24.20;52.80
1347;DHT22;667;48.796;9.480;2023-07-20T09:10:06;24.10;52.50
1347;DHT22;667;48.796;9.480;2023-07-20T09:12:37;24.10;52.50
1347;DHT22;667;48.796;9.480;2023-07-20T09:15:04;24.10;52.50
1347;DHT22;667;48.796;9.480;2023-07-20T09:17:29;24.10;52.60
1347;DHT22;667;48.796;9.480;2023-07-20T09:19:55;24.10;52.50
1347;DHT22;667;48.796;9.480;2023-07-20T09:22:21;24.10;52.40
1347;DHT22;667;48.796;9.480;2023-07-20T09:24:46;24.10;52.60
1347;DHT22;667;48.796;9.480;2023-07-20T09:27:12;24.10;51.90
1347;DHT22;667;48.796;9.480;2023-07-20T09:29:51;24.00;52.00
1347;DHT22;667;48.796;9.480;2023-07-20T09:32:21;24.10;52.20
1347;DHT22;667;48.796;9.480;2023-07-20T09:34:47;24.20;52.20
1347;DHT22;667;48.796;9.480;2023-07-20T09:37:13;24.30;51.90
1347;DHT22;667;48.796;9.480;2023-07-20T09:39:45;24.40;51.80
1347;DHT22;667;48.796;9.480;2023-07-20T09:42:12;24.60;51.30
1347;DHT22;667;48.796;9.480;2023-07-20T09:44:43;24.60;50.80
1347;DHT22;667;48.796;9.480;2023-07-20T09:47:09;24.70;50.40
1347;DHT22;667;48.796;9.480;2023-07-20T09:49:41;24.80;50.20
1347;DHT22;667;48.796;9.480;2023-07-20T09:52:09;24.90;49.50
1347;DHT22;667;48.796;9.480;2023-07-20T09:54:38;25.00;49.30
1347;DHT22;667;48.796;9.480;2023-07-20T09:57:06;25.10;48.60
1347;DHT22;667;48.796;9.480;2023-07-20T09:59:32;25.30;48.70
1347;DHT22;667;48.796;9.480;2023-07-20T10:01:58;25.40;48.00
1347;DHT22;667;48.796;9.480;2023-07-20T10:04:26;25.50;47.60
1347;DHT22;667;48.796;9.480;2023-07-20T10:06:55;25.60;47.30
1347;DHT22;667;48.796;9.480;2023-07-20T10:09:22;25.60;47.00
1347;DHT22;667;48.796;9.480;2023-07-20T10:11:53;25.50;46.60
1347;DHT22;667;48.796;9.480;2023-07-20T10:14:22;25.40;46.60
1347;DHT22;667;48.796;9.480;2023-07-20T10:16:54;25.40;47.10
1347;DHT22;667;48.796;9.480;2023-07-20T10:19:27;25.40;47.10
1347;DHT22;667;48.796;9.480;2023-07-20T10:22:10;25.40;47.40
1347;DHT22;667;48.796;9.480;2023-07-20T10:24:38;25.40;47.50
1347;DHT22;667;48.796;9.480;2023-07-20T10:27:05;25.50;47.10
1347;DHT22;667;48.796;9.480;2023-07-20T10:29:31;25.60;47.10
1347;DHT22;667;48.796;9.480;2023-07-20T10:31:57;25.70;46.60
1347;DHT22;667;48.796;9.480;2023-07-20T10:34:23;25.80;45.80
1347;DHT22;667;48.796;9.480;2023-07-20T10:36:49;26.00;45.50
1347;DHT22;667;48.796;9.480;2023-07-20T10:42:08;26.20;44.60
1347;DHT22;667;48.796;9.480;2023-07-20T10:44:34;26.20;44.60
1347;DHT22;667;48.796;9.480;2023-07-20T10:47:01;26.30;45.10
1347;DHT22;667;48.796;9.480;2023-07-20T10:49:28;26.40;44.40
1347;DHT22;667;48.796;9.480;2023-07-20T10:51:59;26.60;44.10
1347;DHT22;667;48.796;9.480;2023-07-20T10:56:50;26.60;43.50
1347;DHT22;667;48.796;9.480;2023-07-20T10:59:35;26.60;43.20
1347;DHT22;667;48.796;9.480;2023-07-20T11:02:08;26.60;42.60
1347;DHT22;667;48.796;9.480;2023-07-20T11:04:45;26.50;42.60
1347;DHT22;667;48.796;9.480;2023-07-20T11:07:16;26.50;43.10
1347;DHT22;667;48.796;9.480;2023-07-20T11:09:42;26.50;43.20
1347;DHT22;667;48.796;9.480;2023-07-20T11:12:15;26.50;43.20
1347;DHT22;667;48.796;9.480;2023-07-20T11:15:01;26.70;42.90
1347;DHT22;667;48.796;9.480;2023-07-20T11:17:31;26.70;42.50
1347;DHT22;667;48.796;9.480;2023-07-20T11:20:00;26.80;42.10
1347;DHT22;667;48.796;9.480;2023-07-20T11:22:27;26.90;42.30
1347;DHT22;667;48.796;9.480;2023-07-20T11:24:56;27.00;42.10
1347;DHT22;667;48.796;9.480;2023-07-20T11:27:22;27.10;41.70
1347;DHT22;667;48.796;9.480;2023-07-20T11:29:48;27.10;40.90
1347;DHT22;667;48.796;9.480;2023-07-20T11:32:21;27.10;40.70
1347;DHT22;667;48.796;9.480;2023-07-20T11:34:48;27.20;40.40
1347;DHT22;667;48.796;9.480;2023-07-20T11:37:13;27.20;40.20
1347;DHT22;667;48.796;9.480;2023-07-20T11:39:39;27.20;40.40
1347;DHT22;667;48.796;9.480;2023-07-20T11:42:05;27.20;40.70
1347;DHT22;667;48.796;9.480;2023-07-20T11:44:31;27.20;40.70
1347;DHT22;667;48.796;9.480;2023-07-20T11:49:28;27.30;39.80
1347;DHT22;667;48.796;9.480;2023-07-20T11:51:56;27.30;39.30
1347;DHT22;667;48.796;9.480;2023-07-20T11:54:22;27.40;39.40
1347;DHT22;667;48.796;9.480;2023-07-20T11:56:48;27.30;39.30
1347;DHT22;667;48.796;9.480;2023-07-20T11:59:13;27.30;39.10
1347;DHT22;667;48.796;9.480;2023-07-20T12:01:39;27.30;38.90
1347;DHT22;667;48.796;9.480;2023-07-20T12:04:05;27.30;39.10
1347;DHT22;667;48.796;9.480;2023-07-20T12:06:32;27.30;38.90
1347;DHT22;667;48.796;9.480;2023-07-20T12:08:58;27.30;38.00
1347;DHT22;667;48.796;9.480;2023-07-20T12:13:58;27.30;38.70
1347;DHT22;667;48.796;9.480;2023-07-20T12:16:27;27.30;38.90
1347;DHT22;667;48.796;9.480;2023-07-20T12:19:20;27.40;39.10
1347;DHT22;667;48.796;9.480;2023-07-20T12:21:45;27.40;39.10
1347;DHT22;667;48.796;9.480;2023-07-20T12:24:11;27.50;39.20
1347;DHT22;667;48.796;9.480;2023-07-20T12:26:37;27.60;38.90
1347;DHT22;667;48.796;9.480;2023-07-20T12:29:03;27.70;38.90
1347;DHT22;667;48.796;9.480;2023-07-20T12:31:36;27.70;38.50
1347;DHT22;667;48.796;9.480;2023-07-20T12:34:02;27.70;37.80
1347;DHT22;667;48.796;9.480;2023-07-20T12:36:27;27.70;37.90
1347;DHT22;667;48.796;9.480;2023-07-20T12:38:53;27.70;37.80
1347;DHT22;667;48.796;9.480;2023-07-20T12:41:18;27.70;37.50
1347;DHT22;667;48.796;9.480;2023-07-20T12:43:45;27.80;37.90
1347;DHT22;667;48.796;9.480;2023-07-20T12:46:12;27.80;37.60
1347;DHT22;667;48.796;9.480;2023-07-20T12:48:39;27.80;37.20
1347;DHT22;667;48.796;9.480;2023-07-20T12:51:07;27.80;36.90
1347;DHT22;667;48.796;9.480;2023-07-20T12:53:33;27.70;36.90
1347;DHT22;667;48.796;9.480;2023-07-20T12:55:59;27.70;37.30
1347;DHT22;667;48.796;9.480;2023-07-20T12:58:25;27.70;37.20
1347;DHT22;667;48.796;9.480;2023-07-20T13:00:50;27.70;36.60
1347;DHT22;667;48.796;9.480;2023-07-20T13:03:16;27.70;36.00
1347;DHT22;667;48.796;9.480;2023-07-20T13:05:44;27.70;36.50
1347;DHT22;667;48.796;9.480;2023-07-20T13:08:09;27.70;36.10
1347;DHT22;667;48.796;9.480;2023-07-20T13:10:35;27.80;36.20
1347;DHT22;667;48.796;9.480;2023-07-20T13:13:00;27.80;36.10
1347;DHT22;667;48.796;9.480;2023-07-20T13:15:40;27.80;36.20
1347;DHT22;667;48.796;9.480;2023-07-20T13:18:05;27.80;36.20
1347;DHT22;667;48.796;9.480;2023-07-20T13:20:31;27.80;36.20
1347;DHT22;667;48.796;9.480;2023-07-20T13:22:56;27.80;36.00
1347;DHT22;667;48.796;9.480;2023-07-20T13:25:22;27.80;36.00
1347;DHT22;667;48.796;9.480;2023-07-20T13:27:47;27.90;36.00
1347;DHT22;667;48.796;9.480;2023-07-20T13:30:13;27.90;36.00
1347;DHT22;667;48.796;9.480;2023-07-20T13:32:43;28.00;36.50
1347;DHT22;667;48.796;9.480;2023-07-20T13:35:09;28.00;36.70
1347;DHT22;667;48.796;9.480;2023-07-20T13:37:35;28.00;36.50
1347;DHT22;667;48.796;9.480;2023-07-20T13:40:01;28.00;35.90
1347;DHT22;667;48.796;9.480;2023-07-20T13:42:26;28.00;36.10
1347;DHT22;667;48.796;9.480;2023-07-20T13:44:52;28.00;36.00
1347;DHT22;667;48.796;9.480;2023-07-20T13:47:18;28.00;35.90
1347;DHT22;667;48.796;9.480;2023-07-20T13:49:43;28.10;36.00
1347;DHT22;667;48.796;9.480;2023-07-20T13:52:09;28.00;36.00
1347;DHT22;667;48.796;9.480;2023-07-20T13:54:34;28.00;35.90
1347;DHT22;667;48.796;9.480;2023-07-20T13:57:00;28.00;36.10
1347;DHT22;667;48.796;9.480;2023-07-20T13:59:26;28.00;36.10
1347;DHT22;667;48.796;9.480;2023-07-20T14:01:51;28.10;36.40
1347;DHT22;667;48.796;9.480;2023-07-20T14:04:17;28.10;36.20
1347;DHT22;667;48.796;9.480;2023-07-20T14:06:42;28.10;35.60
1347;DHT22;667;48.796;9.480;2023-07-20T14:09:09;28.00;34.90
1347;DHT22;667;48.796;9.480;2023-07-20T14:11:34;28.10;35.00
1347;DHT22;667;48.796;9.480;2023-07-20T14:14:00;28.00;35.50
1347;DHT22;667;48.796;9.480;2023-07-20T14:16:25;28.00;35.60
1347;DHT22;667;48.796;9.480;2023-07-20T14:18:51;28.10;35.80
1347;DHT22;667;48.796;9.480;2023-07-20T14:21:18;28.10;35.60
1347;DHT22;667;48.796;9.480;2023-07-20T14:23:46;28.10;35.80
1347;DHT22;667;48.796;9.480;2023-07-20T14:26:12;28.10;35.50
1347;DHT22;667;48.796;9.480;2023-07-20T14:28:38;28.10;35.00
1347;DHT22;667;48.796;9.480;2023-07-20T14:31:04;28.10;35.40
1347;DHT22;667;48.796;9.480;2023-07-20T14:33:30;28.10;35.40
1347;DHT22;667;48.796;9.480;2023-07-20T14:35:56;28.10;35.40
1347;DHT22;667;48.796;9.480;2023-07-20T14:38:21;28.10;35.20
1347;DHT22;667;48.796;9.480;2023-07-20T14:40:47;28.20;34.80
1347;DHT22;667;48.796;9.480;2023-07-20T14:43:12;28.20;34.50
1347;DHT22;667;48.796;9.480;2023-07-20T14:45:40;28.10;34.70
1347;DHT22;667;48.796;9.480;2023-07-20T14:48:06;28.10;34.60
1347;DHT22;667;48.796;9.480;2023-07-20T14:50:31;28.10;34.00
1347;DHT22;667;48.796;9.480;2023-07-20T14:52:57;28.10;33.80
1347;DHT22;667;48.796;9.480;2023-07-20T14:55:23;28.10;34.00
1347;DHT22;667;48.796;9.480;2023-07-20T14:57:48;28.00;34.10
1347;DHT22;667;48.796;9.480;2023-07-20T15:00:14;28.00;33.50
1347;DHT22;667;48.796;9.480;2023-07-20T15:02:40;28.00;33.40
1347;DHT22;667;48.796;9.480;2023-07-20T15:05:09;28.00;33.90
1347;DHT22;667;48.796;9.480;2023-07-20T15:07:36;27.90;34.00
1347;DHT22;667;48.796;9.480;2023-07-20T15:10:05;27.90;34.10
1347;DHT22;667;48.796;9.480;2023-07-20T15:12:31;27.90;34.10
1347;DHT22;667;48.796;9.480;2023-07-20T15:15:07;27.90;34.00
1347;DHT22;667;48.796;9.480;2023-07-20T15:17:34;27.80;34.40
1347;DHT22;667;48.796;9.480;2023-07-20T15:20:01;27.80;34.50
1347;DHT22;667;48.796;9.480;2023-07-20T15:22:30;27.80;34.30
1347;DHT22;667;48.796;9.480;2023-07-20T15:24:56;27.80;34.00
1347;DHT22;667;48.796;9.480;2023-07-20T15:27:21;27.80;34.10
1347;DHT22;667;48.796;9.480;2023-07-20T15:29:48;27.80;34.30
1347;DHT22;667;48.796;9.480;2023-07-20T15:32:14;27.80;34.50
1347;DHT22;667;48.796;9.480;2023-07-20T15:34:42;27.70;34.60
1347;DHT22;667;48.796;9.480;2023-07-20T15:37:08;27.70;34.70
1347;DHT22;667;48.796;9.480;2023-07-20T15:39:33;27.70;34.90
1347;DHT22;667;48.796;9.480;2023-07-20T15:41:59;27.70;35.00
1347;DHT22;667;48.796;9.480;2023-07-20T15:44:24;27.70;34.80
1347;DHT22;667;48.796;9.480;2023-07-20T15:46:50;27.60;34.70
1347;DHT22;667;48.796;9.480;2023-07-20T15:49:16;27.60;34.70
1347;DHT22;667;48.796;9.480;2023-07-20T15:51:41;27.60;34.90
1347;DHT22;667;48.796;9.480;2023-07-20T15:54:10;27.60;35.20
1347;DHT22;667;48.796;9.480;2023-07-20T15:56:37;27.60;34.40
1347;DHT22;667;48.796;9.480;2023-07-20T15:59:04;27.50;34.50
1347;DHT22;667;48.796;9.480;2023-07-20T16:01:30;27.50;34.70
1347;DHT22;667;48.796;9.480;2023-07-20T16:03:57;27.50;34.90
1347;DHT22;667;48.796;9.480;2023-07-20T16:06:22;27.50;34.60
1347;DHT22;667;48.796;9.480;2023-07-20T16:08:49;27.40;34.10
1347;DHT22;667;48.796;9.480;2023-07-20T16:11:15;27.40;34.20
1347;DHT22;667;48.796;9.480;2023-07-20T16:13:41;27.40;35.00
1347;DHT22;667;48.796;9.480;2023-07-20T16:16:08;27.30;35.30
1347;DHT22;667;48.796;9.480;2023-07-20T16:18:34;27.30;35.30
1347;DHT22;667;48.796;9.480;2023-07-20T16:20:59;27.30;35.20
1347;DHT22;667;48.796;9.480;2023-07-20T16:23:25;27.30;35.10
1347;DHT22;667;48.796;9.480;2023-07-20T16:25:51;27.20;34.70
1347;DHT22;667;48.796;9.480;2023-07-20T16:28:17;27.20;34.90
1347;DHT22;667;48.796;9.480;2023-07-20T16:30:43;27.20;35.30